Time;durP1;ratioP1;P1;durP2;ratioP2;P2;SDS_P1;SDS_P2;PMS_P1;PMS_P2;Temp;Humidity;BMP_temperature;BMP_pressure;BME280_temperature;BME280_humidity;BME280_pressure;Samples;Min_cycle;Max_cycle;Signal;HPM_P1;HPM_P2
2022/01/03 00:01:46;;;;;;;4.90;1.40;;;11.10;99.90;;;;;;5032216;28;20832;-78
2022/01/03 00:04:13;;;;;;;4.57;1.40;;;11.10;99.90;;;;;;5032055;28;20451;-77
2022/01/03 00:06:39;;;;;;;2.40;1.10;;;11.20;99.90;;;;;;5033763;28;20424;-76
2022/01/03 00:09:06;;;;;;;3.53;1.20;;;11.20;99.90;;;;;;5032429;28;20507;-76
2022/01/03 00:11:31;;;;;;;2.90;1.20;;;11.20;99.90;;;;;;5033186;28;20822;-76
2022/01/03 00:13:57;;;;;;;1.63;0.90;;;11.20;99.90;;;;;;4998891;28;20432;-79
2022/01/03 00:16:24;;;;;;;2.03;1.07;;;11.20;99.90;;;;;;5040746;28;20247;-76
2022/01/03 00:18:52;;;;;;;2.70;1.30;;;11.20;99.90;;;;;;5046950;28;20204;-79
2022/01/03 00:21:19;;;;;;;3.50;1.20;;;11.20;99.90;;;;;;5034238;28;20483;-79
2022/01/03 00:23:54;;;;;;;3.27;1.47;;;11.20;99.90;;;;;;5033985;28;20437;-80
2022/01/03 00:26:25;;;;;;;4.40;1.00;;;11.20;99.90;;;;;;5032863;28;20430;-78
2022/01/03 00:28:58;;;;;;;3.13;1.40;;;11.20;99.90;;;;;;5035743;28;20479;-79
2022/01/03 00:31:34;;;;;;;2.73;1.53;;;11.20;99.90;;;;;;5037084;28;20430;-79
2022/01/03 00:34:02;;;;;;;6.97;1.43;;;11.20;99.90;;;;;;5034914;28;20417;-77
2022/01/03 00:36:29;;;;;;;6.00;1.57;;;11.20;99.90;;;;;;5034094;28;20438;-78
2022/01/03 00:38:55;;;;;;;1.30;0.90;;;11.20;99.90;;;;;;5034317;28;20449;-79
2022/01/03 00:41:22;;;;;;;4.10;1.23;;;11.20;99.90;;;;;;5032572;28;20440;-79
2022/01/03 00:43:52;;;;;;;4.60;1.03;;;11.30;99.90;;;;;;5032895;28;20195;-77
2022/01/03 00:46:18;;;;;;;7.30;1.93;;;11.30;99.90;;;;;;5016201;28;20434;-80
2022/01/03 00:48:44;;;;;;;6.80;1.70;;;11.40;99.90;;;;;;5032155;28;20495;-77
2022/01/03 00:51:13;;;;;;;2.83;1.30;;;11.30;99.90;;;;;;5033449;28;20440;-78
2022/01/03 00:53:39;;;;;;;7.07;1.67;;;11.30;99.90;;;;;;5033879;28;20431;-79
2022/01/03 00:56:22;;;;;;;1.77;1.00;;;11.30;99.90;;;;;;5032384;28;21127;-80
2022/01/03 00:59:08;;;;;;;3.30;1.20;;;11.30;99.90;;;;;;5034965;28;20454;-79
2022/01/03 01:01:58;;;;;;;2.37;1.03;;;11.40;99.90;;;;;;5036403;28;20465;-80
2022/01/03 01:04:24;;;;;;;2.93;1.10;;;11.30;99.90;;;;;;5034844;28;20435;-80
2022/01/03 01:06:56;;;;;;;4.20;1.27;;;11.30;99.90;;;;;;5032443;28;20460;-77
2022/01/03 01:09:25;;;;;;;6.00;1.00;;;11.30;99.90;;;;;;5031092;28;20206;-79
2022/01/03 01:11:57;;;;;;;2.30;0.77;;;11.30;99.90;;;;;;5032372;28;20411;-77
2022/01/03 01:14:24;;;;;;;5.87;1.60;;;11.30;99.90;;;;;;5033008;28;20415;-79
2022/01/03 01:16:50;;;;;;;4.20;1.43;;;11.30;99.90;;;;;;5032343;28;20481;-79
2022/01/03 01:19:18;;;;;;;3.23;1.43;;;11.30;99.90;;;;;;5031121;28;20974;-78
2022/01/03 01:21:44;;;;;;;5.30;1.13;;;11.30;99.90;;;;;;5031407;28;20593;-81
2022/01/03 01:24:10;;;;;;;7.03;1.10;;;11.30;99.90;;;;;;5032271;28;20412;-78
2022/01/03 01:29:21;;;;;;;6.33;2.23;;;11.20;99.90;;;;;;5031445;28;20482;-79
2022/01/03 01:31:50;;;;;;;9.33;1.50;;;11.30;99.90;;;;;;5030312;28;20428;-80
2022/01/03 01:34:25;;;;;;;10.87;2.03;;;11.20;99.90;;;;;;5030254;28;20183;-78
2022/01/03 01:36:53;;;;;;;3.77;1.00;;;11.20;99.90;;;;;;5030176;28;20438;-79
2022/01/03 01:39:22;;;;;;;2.93;1.20;;;11.20;99.90;;;;;;5030406;28;20446;-79
2022/01/03 01:41:48;;;;;;;2.07;0.90;;;11.20;99.90;;;;;;5031371;28;20430;-77
2022/01/03 01:44:15;;;;;;;2.33;1.10;;;11.30;99.90;;;;;;5015198;28;20439;-79
2022/01/03 01:46:46;;;;;;;4.53;1.30;;;11.30;99.90;;;;;;5031527;28;20421;-77
2022/01/03 01:49:17;;;;;;;6.80;1.60;;;11.30;99.90;;;;;;5031299;28;20485;-79
2022/01/03 01:51:49;;;;;;;3.70;1.27;;;11.30;99.90;;;;;;5031468;28;20440;-81
2022/01/03 01:54:17;;;;;;;2.53;0.90;;;11.30;99.90;;;;;;5031629;28;20408;-81
2022/01/03 01:57:05;;;;;;;6.37;1.40;;;11.30;99.90;;;;;;5029705;28;21156;-78
2022/01/03 02:00:06;;;;;;;5.00;1.27;;;11.30;99.90;;;;;;5030404;28;20525;-76
2022/01/03 02:02:56;;;;;;;5.93;1.10;;;11.30;99.90;;;;;;4988820;28;20474;-76
2022/01/03 02:05:36;;;;;;;4.10;1.00;;;11.30;99.90;;;;;;4978052;28;20514;-77
2022/01/03 02:08:26;;;;;;;6.97;1.80;;;11.20;99.90;;;;;;5030696;28;20474;-76
2022/01/03 02:10:58;;;;;;;6.77;1.47;;;11.20;99.90;;;;;;5029457;28;20431;-78
2022/01/03 02:13:25;;;;;;;6.77;1.53;;;11.20;99.90;;;;;;5030301;28;20473;-76
2022/01/03 02:16:00;;;;;;;2.90;1.37;;;11.20;99.90;;;;;;5028939;28;20425;-77
2022/01/03 02:18:26;;;;;;;3.53;1.00;;;11.20;99.90;;;;;;5030165;28;20447;-77
2022/01/03 02:20:52;;;;;;;5.90;1.50;;;11.20;99.90;;;;;;5030881;28;20432;-77
2022/01/03 02:23:18;;;;;;;5.07;1.53;;;11.20;99.90;;;;;;5030968;28;20433;-77
2022/01/03 02:25:44;;;;;;;2.30;1.00;;;11.20;99.90;;;;;;5030806;28;20915;-78
2022/01/03 02:28:10;;;;;;;7.47;1.60;;;11.20;99.90;;;;;;5029537;28;20477;-77
2022/01/03 02:30:36;;;;;;;4.83;1.43;;;11.20;99.90;;;;;;5029833;28;20646;-77
2022/01/03 02:33:03;;;;;;;8.10;1.40;;;11.20;99.90;;;;;;5031209;28;20184;-77
2022/01/03 02:35:30;;;;;;;9.30;1.00;;;11.10;99.90;;;;;;5028920;28;20513;-78
2022/01/03 02:37:56;;;;;;;4.30;0.90;;;11.10;99.90;;;;;;5030445;28;20421;-79
2022/01/03 02:40:22;;;;;;;4.40;1.10;;;11.10;99.90;;;;;;5029097;28;20450;-78
2022/01/03 02:42:49;;;;;;;3.37;1.20;;;11.10;99.90;;;;;;5030337;28;20472;-80
2022/01/03 02:45:19;;;;;;;4.77;1.17;;;11.10;99.90;;;;;;5030507;28;20432;-78
2022/01/03 02:47:53;;;;;;;5.63;1.00;;;11.10;99.90;;;;;;5030800;28;20462;-78
2022/01/03 02:50:20;;;;;;;6.50;1.30;;;11.10;99.90;;;;;;5030548;28;20460;-77
2022/01/03 02:52:47;;;;;;;2.80;1.80;;;11.10;99.90;;;;;;5030262;28;20419;-78
2022/01/03 02:55:14;;;;;;;6.97;1.23;;;11.10;99.90;;;;;;5028204;28;20492;-78
2022/01/03 02:58:06;;;;;;;5.40;1.13;;;11.00;99.90;;;;;;5028540;28;20510;-77
2022/01/03 03:00:35;;;;;;;5.07;1.13;;;11.00;99.90;;;;;;5030021;28;21109;-79
2022/01/03 03:03:03;;;;;;;2.70;1.20;;;11.00;99.90;;;;;;5028787;28;21158;-79
2022/01/03 03:05:28;;;;;;;8.17;1.50;;;11.00;99.90;;;;;;5028643;28;20430;-79
2022/01/03 03:07:54;;;;;;;4.47;1.03;;;11.00;99.90;;;;;;5030187;28;21066;-78
2022/01/03 03:10:22;;;;;;;6.67;1.90;;;11.00;99.90;;;;;;5029934;28;20440;-79
2022/01/03 03:12:48;;;;;;;3.80;1.23;;;11.00;99.90;;;;;;5028791;28;20281;-78
2022/01/03 03:15:15;;;;;;;4.00;1.10;;;11.00;99.90;;;;;;5028347;28;20437;-78
2022/01/03 03:17:42;;;;;;;6.20;1.73;;;11.00;99.90;;;;;;5028499;28;20444;-78
2022/01/03 03:20:14;;;;;;;2.27;1.33;;;11.00;99.90;;;;;;5029895;28;20484;-77
2022/01/03 03:22:40;;;;;;;6.30;1.50;;;11.00;99.90;;;;;;5030066;28;20950;-78
2022/01/03 03:25:14;;;;;;;7.00;1.20;;;11.00;99.90;;;;;;5034370;28;20415;-77
2022/01/03 03:27:44;;;;;;;2.87;1.20;;;11.00;99.90;;;;;;5032996;28;20466;-77
2022/01/03 03:30:19;;;;;;;3.50;1.20;;;11.00;99.90;;;;;;5034401;28;20447;-77
2022/01/03 03:32:46;;;;;;;4.73;1.20;;;11.00;99.90;;;;;;5031896;28;20543;-77
2022/01/03 03:35:13;;;;;;;6.40;1.90;;;11.00;99.90;;;;;;5032093;28;20425;-78
2022/01/03 03:37:38;;;;;;;9.70;2.03;;;11.00;99.90;;;;;;5032976;28;20513;-79
2022/01/03 03:40:05;;;;;;;7.37;1.43;;;10.90;99.90;;;;;;5034465;28;20535;-80
2022/01/03 03:42:31;;;;;;;6.37;1.40;;;10.90;99.90;;;;;;5032964;28;20439;-78
2022/01/03 03:44:57;;;;;;;3.67;1.30;;;10.90;99.90;;;;;;5034658;28;20426;-79
2022/01/03 03:47:22;;;;;;;8.30;1.30;;;10.90;99.90;;;;;;5036109;28;20257;-79
2022/01/03 03:49:48;;;;;;;3.10;1.37;;;10.90;99.90;;;;;;5033336;28;20576;-79
2022/01/03 03:52:13;;;;;;;8.07;2.10;;;10.90;99.90;;;;;;5000256;28;20212;-78
2022/01/03 03:54:39;;;;;;;3.07;1.27;;;10.80;99.90;;;;;;5034751;28;20282;-78
2022/01/03 03:57:05;;;;;;;2.43;1.30;;;10.80;99.90;;;;;;5032639;28;20209;-78
2022/01/03 03:59:31;;;;;;;13.30;1.20;;;10.80;99.90;;;;;;5034933;28;20212;-79
2022/01/03 04:01:58;;;;;;;2.10;1.17;;;10.80;99.90;;;;;;5033907;28;20997;-79
2022/01/03 04:04:24;;;;;;;4.10;1.37;;;10.80;99.90;;;;;;5034873;28;20425;-78
2022/01/03 04:06:50;;;;;;;3.57;1.13;;;10.80;99.90;;;;;;5017050;28;20264;-79
2022/01/03 04:09:16;;;;;;;6.50;1.53;;;10.70;99.90;;;;;;5033297;28;20230;-78
2022/01/03 04:11:42;;;;;;;6.83;1.17;;;10.70;99.90;;;;;;5017133;28;20428;-78
2022/01/03 04:14:07;;;;;;;4.73;1.37;;;10.70;99.90;;;;;;5033847;28;20191;-78
2022/01/03 04:16:35;;;;;;;9.43;1.57;;;10.70;99.90;;;;;;5034341;28;20194;-78
2022/01/03 04:19:01;;;;;;;3.17;1.10;;;10.70;99.90;;;;;;5033981;28;20236;-78
2022/01/03 04:21:27;;;;;;;7.60;1.40;;;10.70;99.90;;;;;;5032065;28;20528;-77
2022/01/03 04:23:53;;;;;;;9.40;2.07;;;10.60;99.90;;;;;;5033891;28;20510;-77
2022/01/03 04:26:20;;;;;;;7.00;1.60;;;10.60;99.90;;;;;;5032507;28;20519;-79
2022/01/03 04:28:46;;;;;;;7.27;1.67;;;10.50;99.90;;;;;;5030976;28;20896;-80
2022/01/03 04:31:12;;;;;;;5.33;1.87;;;10.50;99.90;;;;;;5031540;28;20452;-78
2022/01/03 04:33:37;;;;;;;5.80;1.13;;;10.50;99.90;;;;;;5030452;28;20423;-79
2022/01/03 04:36:05;;;;;;;5.90;1.53;;;10.50;99.90;;;;;;5030636;28;20955;-77
2022/01/03 04:38:32;;;;;;;4.87;1.40;;;10.50;99.90;;;;;;5032144;28;20214;-76
2022/01/03 04:40:59;;;;;;;5.63;1.40;;;10.50;99.90;;;;;;5014701;28;21081;-77
2022/01/03 04:43:25;;;;;;;3.43;1.10;;;10.40;99.90;;;;;;5032705;28;20423;-76
2022/01/03 04:45:51;;;;;;;2.30;1.30;;;10.30;99.90;;;;;;5032211;28;20425;-78
2022/01/03 04:48:17;;;;;;;5.97;1.47;;;10.40;99.90;;;;;;5030868;28;20223;-78
2022/01/03 04:50:43;;;;;;;11.30;1.60;;;10.40;99.90;;;;;;5032531;28;20197;-77
2022/01/03 04:53:08;;;;;;;5.17;1.20;;;10.40;99.90;;;;;;5033105;28;20431;-77
2022/01/03 04:55:34;;;;;;;6.07;1.50;;;10.30;99.90;;;;;;5032777;28;20183;-79
2022/01/03 04:57:59;;;;;;;9.93;1.60;;;10.30;99.90;;;;;;5014795;28;20696;-78
2022/01/03 05:00:25;;;;;;;3.90;0.93;;;10.30;99.90;;;;;;5030845;28;20213;-78
2022/01/03 05:02:51;;;;;;;5.33;1.90;;;10.30;99.90;;;;;;5032254;28;20195;-78
2022/01/03 05:05:16;;;;;;;6.63;1.80;;;10.30;99.90;;;;;;5031503;28;20197;-79
2022/01/03 05:07:42;;;;;;;5.83;1.40;;;10.30;99.90;;;;;;5013654;28;20745;-78
2022/01/03 05:10:08;;;;;;;4.93;1.40;;;10.40;99.90;;;;;;5030376;28;20283;-78
2022/01/03 05:12:34;;;;;;;4.00;1.20;;;10.40;99.90;;;;;;5031914;28;20180;-78
2022/01/03 05:15:00;;;;;;;16.20;1.93;;;10.50;99.90;;;;;;5032218;28;20446;-78
2022/01/03 05:17:28;;;;;;;4.40;1.17;;;10.50;99.90;;;;;;5030502;28;20423;-78
2022/01/03 05:19:55;;;;;;;4.30;1.80;;;10.40;99.90;;;;;;5014512;28;20581;-78
2022/01/03 05:22:20;;;;;;;8.67;1.53;;;10.40;99.90;;;;;;5030803;28;20491;-78
2022/01/03 05:24:46;;;;;;;15.70;1.70;;;10.30;99.90;;;;;;5013939;28;21243;-77
2022/01/03 05:27:12;;;;;;;4.20;1.20;;;10.30;99.90;;;;;;5030175;28;20194;-78
2022/01/03 05:29:38;;;;;;;9.40;1.53;;;10.40;99.90;;;;;;5029848;28;20231;-80
2022/01/03 05:32:03;;;;;;;9.87;1.63;;;10.30;99.90;;;;;;5031417;28;20559;-78
2022/01/03 05:34:29;;;;;;;5.47;1.10;;;10.30;99.90;;;;;;5030730;28;20193;-77
2022/01/03 05:36:55;;;;;;;8.50;1.20;;;10.30;99.90;;;;;;5030236;28;20959;-78
2022/01/03 05:39:20;;;;;;;8.90;1.57;;;10.30;99.90;;;;;;5031697;28;20757;-78
2022/01/03 05:41:46;;;;;;;6.17;1.70;;;10.30;99.90;;;;;;5013931;28;20189;-77
2022/01/03 05:44:12;;;;;;;10.93;2.00;;;10.20;99.90;;;;;;5031687;28;20732;-78
2022/01/03 05:46:37;;;;;;;6.10;1.37;;;10.20;99.90;;;;;;5029039;28;20292;-77
2022/01/03 05:49:04;;;;;;;5.40;0.90;;;10.20;99.90;;;;;;5031335;28;20235;-77
2022/01/03 05:51:29;;;;;;;7.70;1.77;;;10.10;99.90;;;;;;5029882;28;20196;-78
2022/01/03 05:53:55;;;;;;;11.97;2.23;;;10.10;99.90;;;;;;5031459;28;20418;-81
2022/01/03 05:56:22;;;;;;;15.20;1.90;;;10.10;99.90;;;;;;5030735;28;20427;-79
2022/01/03 05:58:47;;;;;;;2.90;1.30;;;10.00;99.90;;;;;;5014889;28;20270;-77
2022/01/03 06:01:13;;;;;;;3.30;1.27;;;10.00;99.90;;;;;;5017553;28;20431;-78
2022/01/03 06:03:40;;;;;;;4.87;1.83;;;10.00;99.90;;;;;;5031527;28;20189;-76
2022/01/03 06:08:35;;;;;;;3.73;1.20;;;10.00;99.90;;;;;;5030219;28;20467;-76
2022/01/03 06:11:01;;;;;;;6.63;1.43;;;10.00;99.90;;;;;;5030073;28;20423;-76
2022/01/03 06:13:26;;;;;;;4.13;1.10;;;10.00;99.90;;;;;;5030198;28;20729;-76
2022/01/03 06:15:52;;;;;;;10.53;1.43;;;10.00;99.90;;;;;;5030158;28;20403;-75
2022/01/03 06:18:19;;;;;;;9.70;2.17;;;9.90;99.90;;;;;;5030266;28;20189;-77
2022/01/03 06:20:46;;;;;;;8.07;1.37;;;10.00;99.90;;;;;;5033622;28;20424;-77
2022/01/03 06:23:14;;;;;;;7.50;1.13;;;9.90;99.90;;;;;;5033947;28;20422;-77
2022/01/03 06:25:40;;;;;;;7.10;1.23;;;9.90;99.90;;;;;;5034393;28;20426;-78
2022/01/03 06:28:07;;;;;;;10.23;2.10;;;9.90;99.90;;;;;;5034913;28;20517;-80
2022/01/03 06:30:37;;;;;;;4.20;1.13;;;9.90;99.90;;;;;;5033630;28;20927;-79
2022/01/03 06:33:04;;;;;;;7.03;1.73;;;10.00;99.90;;;;;;5033497;28;20421;-78
2022/01/03 06:35:30;;;;;;;6.87;1.20;;;10.00;99.90;;;;;;5034674;28;20917;-79
2022/01/03 06:37:55;;;;;;;8.20;1.53;;;9.90;99.90;;;;;;5036100;28;20436;-78
2022/01/03 06:40:21;;;;;;;5.23;1.80;;;10.00;99.90;;;;;;5033146;28;20211;-77
2022/01/03 06:42:47;;;;;;;6.80;1.60;;;10.00;99.90;;;;;;5033338;28;20208;-79
2022/01/03 06:45:13;;;;;;;9.50;1.53;;;10.00;99.90;;;;;;5035182;28;20218;-78
2022/01/03 06:47:38;;;;;;;8.53;1.37;;;10.00;99.90;;;;;;5035313;28;20455;-77
2022/01/03 06:50:05;;;;;;;4.97;1.40;;;9.90;99.90;;;;;;5034599;28;20199;-78
2022/01/03 06:52:30;;;;;;;12.80;2.10;;;10.00;99.90;;;;;;5033400;28;20427;-78
2022/01/03 06:54:56;;;;;;;5.97;1.70;;;10.00;99.90;;;;;;5016709;28;20425;-78
2022/01/03 06:57:23;;;;;;;2.40;1.40;;;10.00;99.90;;;;;;5032818;28;20185;-78
2022/01/03 06:59:48;;;;;;;5.53;1.97;;;10.00;99.90;;;;;;5034950;28;20207;-78
2022/01/03 07:02:14;;;;;;;3.73;1.50;;;10.00;99.90;;;;;;5032767;28;20419;-79
2022/01/03 07:04:40;;;;;;;8.20;1.17;;;10.10;99.90;;;;;;5032460;28;20666;-79
2022/01/03 07:07:05;;;;;;;4.73;1.70;;;10.10;99.90;;;;;;5031675;28;20612;-76
2022/01/03 07:09:31;;;;;;;5.40;1.70;;;10.00;99.90;;;;;;5031870;28;20635;-78
2022/01/03 07:11:57;;;;;;;5.53;1.93;;;10.00;99.90;;;;;;5032184;28;20248;-78
2022/01/03 07:19:53;;;;;;;3.20;1.60;;;10.10;99.90;;;;;;5032073;28;20206;-77
2022/01/03 07:22:19;;;;;;;12.93;1.27;;;10.00;99.90;;;;;;5031348;28;20412;-77
2022/01/03 07:24:46;;;;;;;5.90;1.40;;;10.10;99.90;;;;;;5031564;28;20425;-78
2022/01/03 07:27:12;;;;;;;4.53;1.20;;;10.10;99.90;;;;;;5030823;28;20942;-77
2022/01/03 07:29:39;;;;;;;13.57;2.13;;;10.10;99.90;;;;;;5031600;28;20447;-77
2022/01/03 07:32:05;;;;;;;6.40;1.20;;;10.10;99.90;;;;;;5031578;28;20416;-76
2022/01/03 07:34:31;;;;;;;5.33;1.07;;;10.10;99.90;;;;;;5031630;28;20421;-78
2022/01/03 07:36:56;;;;;;;5.17;1.80;;;10.10;99.90;;;;;;5031503;28;20428;-77
2022/01/03 07:39:23;;;;;;;5.13;1.70;;;10.10;99.90;;;;;;5031532;28;20208;-77
2022/01/03 07:41:48;;;;;;;7.50;1.63;;;10.10;99.90;;;;;;5029839;28;20275;-78
2022/01/03 07:44:14;;;;;;;3.57;1.50;;;10.10;99.90;;;;;;5030230;28;20861;-76
2022/01/03 07:46:40;;;;;;;9.00;1.43;;;10.10;99.90;;;;;;5030035;28;20220;-78
2022/01/03 07:49:05;;;;;;;3.70;1.33;;;10.20;99.90;;;;;;5029562;28;20574;-77
2022/01/03 07:51:31;;;;;;;3.87;1.33;;;10.20;99.90;;;;;;5028651;28;20622;-77
2022/01/03 07:53:57;;;;;;;8.10;1.80;;;10.20;99.90;;;;;;5030856;28;20184;-77
2022/01/03 07:56:23;;;;;;;4.93;1.20;;;10.30;99.90;;;;;;5030279;28;20452;-78
2022/01/03 07:58:49;;;;;;;4.90;1.30;;;10.30;99.90;;;;;;5030088;28;20475;-78
2022/01/03 08:01:15;;;;;;;8.20;1.33;;;10.30;99.90;;;;;;5028677;28;20239;-77
2022/01/03 08:03:41;;;;;;;5.93;1.30;;;10.30;99.90;;;;;;5030434;28;20183;-76
2022/01/03 08:06:08;;;;;;;2.77;1.03;;;10.30;99.90;;;;;;5030517;28;20426;-78
2022/01/03 08:08:37;;;;;;;3.87;1.00;;;10.20;99.90;;;;;;5030269;28;20217;-77
2022/01/03 08:11:03;;;;;;;5.10;1.10;;;10.30;99.90;;;;;;5033371;28;20439;-78
2022/01/03 08:13:29;;;;;;;3.93;1.00;;;10.30;99.90;;;;;;5032400;28;20459;-77
2022/01/03 08:15:55;;;;;;;10.90;2.33;;;10.20;99.90;;;;;;5034598;28;20448;-79
2022/01/03 08:18:20;;;;;;;4.03;1.20;;;10.20;99.90;;;;;;5034171;28;20191;-79
2022/01/03 08:20:46;;;;;;;7.47;2.00;;;10.40;99.90;;;;;;5033942;28;20213;-79
2022/01/03 08:23:12;;;;;;;2.47;1.40;;;10.40;99.90;;;;;;5016230;28;20192;-77
2022/01/03 08:25:38;;;;;;;3.20;1.30;;;10.40;99.90;;;;;;5032926;28;20274;-77
2022/01/03 08:28:08;;;;;;;2.50;1.30;;;10.40;99.90;;;;;;5029296;28;20213;-77
2022/01/03 08:30:35;;;;;;;6.23;1.83;;;10.40;99.90;;;;;;5030406;28;20422;-77
2022/01/03 08:33:02;;;;;;;7.80;1.70;;;10.40;99.90;;;;;;5029871;28;20996;-76
2022/01/03 08:35:27;;;;;;;11.00;1.77;;;10.50;99.90;;;;;;5029754;28;20424;-76
2022/01/03 08:37:56;;;;;;;3.77;1.20;;;10.50;99.90;;;;;;5028336;28;20433;-76
2022/01/03 08:40:21;;;;;;;3.80;1.10;;;10.50;99.90;;;;;;5029391;28;20866;-76
2022/01/03 08:42:47;;;;;;;5.47;1.77;;;10.50;99.90;;;;;;5030208;28;20483;-76
2022/01/03 08:45:13;;;;;;;6.80;1.60;;;10.60;99.90;;;;;;5030058;28;20352;-75
2022/01/03 08:47:39;;;;;;;4.23;1.37;;;10.60;99.90;;;;;;5029565;28;20207;-76
2022/01/03 08:50:06;;;;;;;3.53;0.83;;;10.60;99.90;;;;;;5029437;28;21265;-76
2022/01/03 08:52:32;;;;;;;7.80;1.53;;;10.70;99.90;;;;;;5029213;28;20177;-75
2022/01/03 08:54:58;;;;;;;5.60;1.57;;;10.80;99.90;;;;;;5027898;28;20424;-76
2022/01/03 08:57:25;;;;;;;9.07;1.63;;;10.70;99.90;;;;;;5029148;28;20182;-76
2022/01/03 08:59:51;;;;;;;3.33;1.20;;;10.80;99.90;;;;;;5028155;28;21252;-77
2022/01/03 09:02:17;;;;;;;3.07;1.10;;;10.80;99.90;;;;;;5029528;28;20475;-77
2022/01/03 09:04:44;;;;;;;6.13;1.10;;;10.80;99.90;;;;;;5030086;28;20424;-74
2022/01/03 09:07:10;;;;;;;7.33;1.77;;;10.90;99.90;;;;;;5030681;28;20426;-78
2022/01/03 09:09:36;;;;;;;10.50;1.67;;;10.90;99.90;;;;;;5029598;28;20911;-78
2022/01/03 09:12:06;;;;;;;7.97;1.73;;;11.00;99.90;;;;;;5029691;28;20454;-77
2022/01/03 09:14:32;;;;;;;8.30;1.90;;;11.10;99.90;;;;;;5031008;28;20187;-73
2022/01/03 09:16:58;;;;;;;5.43;1.30;;;11.10;99.90;;;;;;5029494;28;20492;-77
2022/01/03 09:19:23;;;;;;;5.30;1.30;;;11.20;99.90;;;;;;5028880;28;20454;-76
2022/01/03 09:21:49;;;;;;;5.67;1.37;;;11.20;99.90;;;;;;5028834;28;20657;-77
2022/01/03 09:24:32;;;;;;;5.20;1.57;;;11.20;99.90;;;;;;5028890;28;20211;-76
2022/01/03 09:29:43;;;;;;;10.20;2.53;;;11.20;99.90;;;;;;5029135;28;20854;-77
2022/01/03 09:32:08;;;;;;;6.23;1.40;;;11.20;99.90;;;;;;5027394;28;20421;-77
2022/01/03 09:34:35;;;;;;;5.47;1.33;;;11.20;99.90;;;;;;5031541;28;20185;-76
2022/01/03 09:37:01;;;;;;;10.03;1.77;;;11.20;99.90;;;;;;5042154;28;20190;-76
2022/01/03 09:39:27;;;;;;;7.27;1.47;;;11.10;99.90;;;;;;5030781;28;20867;-77
2022/01/03 09:42:14;;;;;;;5.33;1.40;;;11.10;99.90;;;;;;5027111;28;20433;-76
2022/01/03 09:44:41;;;;;;;6.23;1.30;;;11.20;99.90;;;;;;5028857;28;20530;-77
2022/01/03 09:47:10;;;;;;;4.80;1.40;;;11.20;99.90;;;;;;5010789;28;20948;-77
2022/01/03 09:49:38;;;;;;;4.53;1.77;;;11.10;99.90;;;;;;5027110;28;20548;-77
2022/01/03 09:52:05;;;;;;;10.67;1.73;;;11.20;99.90;;;;;;5027294;28;20449;-77
2022/01/03 09:54:31;;;;;;;37.00;2.93;;;11.20;99.90;;;;;;5028513;28;20428;-76
2022/01/03 09:57:00;;;;;;;10.70;1.60;;;11.30;99.90;;;;;;5028948;28;20416;-76
2022/01/03 09:59:26;;;;;;;3.57;0.80;;;11.20;99.90;;;;;;5029158;28;20443;-76
2022/01/03 10:01:53;;;;;;;5.57;1.70;;;11.30;99.90;;;;;;5029005;28;20427;-77
2022/01/03 10:04:19;;;;;;;5.27;1.30;;;11.30;99.90;;;;;;5028811;28;20431;-76
2022/01/03 10:06:45;;;;;;;2.37;1.27;;;11.30;99.90;;;;;;5029056;28;20434;-77
2022/01/03 10:09:11;;;;;;;6.57;1.53;;;11.20;99.90;;;;;;5028642;28;20227;-76
2022/01/03 10:11:37;;;;;;;4.20;1.30;;;11.20;99.90;;;;;;5028524;28;20540;-77
2022/01/03 10:14:03;;;;;;;2.73;1.30;;;11.10;99.90;;;;;;5028379;28;21168;-76
2022/01/03 10:16:29;;;;;;;7.77;1.37;;;11.20;99.90;;;;;;5028336;28;20432;-77
2022/01/03 10:18:55;;;;;;;7.33;1.60;;;11.20;99.90;;;;;;5028310;28;20295;-76
2022/01/03 10:21:43;;;;;;;2.07;0.97;;;11.30;99.90;;;;;;5028035;28;20540;-76
2022/01/03 10:24:10;;;;;;;4.67;1.47;;;11.30;99.90;;;;;;5028249;28;20481;-77
2022/01/03 10:26:38;;;;;;;3.80;1.30;;;11.20;99.90;;;;;;5028034;28;20436;-76
2022/01/03 10:29:15;;;;;;;4.93;1.20;;;11.20;99.90;;;;;;5027841;28;20477;-77
2022/01/03 10:31:42;;;;;;;5.67;1.50;;;11.20;99.90;;;;;;5026032;28;20794;-76
2022/01/03 10:34:10;;;;;;;4.90;1.50;;;11.20;99.90;;;;;;5028022;28;20434;-77
2022/01/03 10:36:37;;;;;;;3.57;1.60;;;11.30;99.90;;;;;;5027712;28;20455;-77
2022/01/03 10:39:13;;;;;;;3.67;1.40;;;11.20;99.90;;;;;;5027369;28;20970;-77
2022/01/03 10:41:39;;;;;;;5.67;1.30;;;11.30;99.90;;;;;;5027452;28;20445;-77
2022/01/03 10:44:05;;;;;;;4.90;1.07;;;11.30;99.90;;;;;;5026059;28;20430;-77
2022/01/03 10:46:33;;;;;;;3.77;1.30;;;11.30;99.90;;;;;;5027619;28;20533;-77
2022/01/03 10:49:07;;;;;;;5.33;2.00;;;11.30;99.90;;;;;;5025739;28;20219;-76
2022/01/03 10:51:32;;;;;;;4.10;0.97;;;11.30;99.90;;;;;;5027289;28;21098;-77
2022/01/03 10:53:58;;;;;;;6.53;1.00;;;11.30;99.90;;;;;;5025722;28;20428;-76
2022/01/03 10:56:40;;;;;;;8.47;1.50;;;11.30;99.90;;;;;;5027350;28;20178;-76
2022/01/03 10:59:14;;;;;;;3.60;1.40;;;11.20;99.90;;;;;;5027189;28;20221;-76
2022/01/03 11:01:41;;;;;;;3.97;0.87;;;11.30;99.90;;;;;;5027364;28;20436;-77
2022/01/03 11:04:08;;;;;;;4.10;1.07;;;11.30;99.90;;;;;;5027228;28;20522;-77
2022/01/03 11:11:51;;;;;;;6.70;1.50;;;11.30;99.90;;;;;;5027551;28;20245;-76
2022/01/03 11:14:39;;;;;;;7.80;2.33;;;11.30;99.90;;;;;;5025794;28;20859;-76
2022/01/03 11:17:24;;;;;;;4.83;1.20;;;11.30;99.90;;;;;;5027036;28;20423;-77
2022/01/03 11:19:50;;;;;;;4.23;1.73;;;11.30;99.90;;;;;;5027091;28;20451;-77
2022/01/03 11:22:37;;;;;;;3.80;1.20;;;11.40;99.90;;;;;;5027174;28;20425;-77
2022/01/03 11:25:05;;;;;;;4.50;1.27;;;11.40;99.90;;;;;;5025481;28;20191;-77
2022/01/03 11:27:31;;;;;;;4.90;1.53;;;11.40;99.90;;;;;;5027242;28;20837;-76
2022/01/03 11:29:58;;;;;;;7.13;1.30;;;11.50;99.90;;;;;;5026865;28;20449;-76
2022/01/03 11:32:23;;;;;;;3.60;1.13;;;11.50;99.90;;;;;;5027026;28;20450;-76
2022/01/03 11:34:51;;;;;;;9.10;1.80;;;11.50;99.90;;;;;;5026736;28;20451;-76
2022/01/03 11:37:16;;;;;;;5.67;1.90;;;11.50;99.90;;;;;;5026828;28;20182;-76
2022/01/03 11:39:48;;;;;;;3.20;1.13;;;11.50;99.90;;;;;;5025197;28;21109;-76
2022/01/03 11:42:14;;;;;;;3.10;1.20;;;11.50;99.90;;;;;;5026577;28;20192;-76
2022/01/03 11:44:40;;;;;;;5.90;1.33;;;11.50;99.90;;;;;;5029877;28;20539;-76
2022/01/03 11:47:08;;;;;;;1.67;1.10;;;11.50;99.90;;;;;;5030611;28;20515;-76
2022/01/03 11:49:36;;;;;;;5.13;1.40;;;11.50;99.90;;;;;;5028662;28;21313;-76
2022/01/03 11:52:08;;;;;;;11.53;1.80;;;11.60;99.90;;;;;;5030338;28;20488;-76
2022/01/03 11:54:34;;;;;;;4.50;1.20;;;11.50;99.90;;;;;;5028962;28;20428;-76
2022/01/03 11:57:17;;;;;;;5.00;1.63;;;11.60;99.90;;;;;;5028865;28;20425;-76
2022/01/03 12:06:02;;;;;;;14.50;2.27;;;11.60;99.90;;;;;;5030814;28;20415;-77
2022/01/03 12:08:33;;;;;;;1.93;0.93;;;11.60;99.90;;;;;;5030098;28;20477;-77
2022/01/03 12:11:00;;;;;;;7.20;1.10;;;11.60;99.90;;;;;;5030255;28;20984;-77
2022/01/03 12:13:49;;;;;;;7.67;1.40;;;11.60;99.90;;;;;;5030016;28;20423;-76
2022/01/03 12:16:16;;;;;;;3.47;0.90;;;11.60;99.90;;;;;;5030159;28;20445;-75
2022/01/03 12:18:59;;;;;;;4.03;1.03;;;11.60;99.90;;;;;;5030487;28;20438;-77
2022/01/03 12:21:58;;;;;;;7.83;1.00;;;11.70;99.90;;;;;;5030042;28;20999;-76
2022/01/03 12:24:26;;;;;;;3.27;1.10;;;11.70;99.90;;;;;;5021964;28;20510;-76
2022/01/03 12:27:10;;;;;;;4.40;1.03;;;11.70;99.90;;;;;;5029912;28;20425;-77
2022/01/03 12:29:57;;;;;;;4.40;1.00;;;11.70;99.90;;;;;;5029973;28;20497;-76
2022/01/03 12:33:07;;;;;;;4.80;1.00;;;11.70;99.90;;;;;;5029983;28;20456;-77
2022/01/03 12:35:38;;;;;;;3.03;1.07;;;11.70;99.90;;;;;;5021530;28;20441;-76
2022/01/03 12:38:04;;;;;;;3.90;0.70;;;11.70;99.90;;;;;;5029814;28;20429;-76
2022/01/03 12:40:42;;;;;;;6.10;1.37;;;11.70;99.90;;;;;;5029803;28;20797;-77
2022/01/03 12:43:11;;;;;;;3.87;0.97;;;11.80;99.90;;;;;;5031168;28;20193;-77
2022/01/03 12:45:37;;;;;;;4.40;0.90;;;11.80;99.90;;;;;;5029698;28;20498;-77
2022/01/03 12:48:11;;;;;;;3.97;1.97;;;11.80;99.90;;;;;;5027907;28;20461;-76
2022/01/03 12:50:52;;;;;;;5.10;1.10;;;11.80;99.90;;;;;;5029503;28;20273;-76
2022/01/03 12:53:23;;;;;;;2.93;1.77;;;11.80;99.90;;;;;;5029700;28;20919;-76
2022/01/03 12:55:52;;;;;;;3.00;0.90;;;11.80;99.90;;;;;;5028935;28;20414;-76
2022/01/03 12:58:20;;;;;;;3.27;1.13;;;11.70;99.90;;;;;;5029841;28;20420;-75
2022/01/03 13:00:50;;;;;;;2.63;0.90;;;11.70;99.90;;;;;;5029425;28;20426;-76
2022/01/03 13:03:47;;;;;;;2.80;1.10;;;11.70;99.90;;;;;;5029408;28;20514;-77
2022/01/03 13:06:24;;;;;;;2.90;0.90;;;11.70;99.90;;;;;;5028627;28;20490;-76
2022/01/03 13:08:56;;;;;;;3.57;1.03;;;11.70;99.90;;;;;;5029359;28;20477;-76
2022/01/03 13:11:23;;;;;;;3.53;0.90;;;11.70;99.90;;;;;;5029270;28;21079;-76
2022/01/03 13:13:52;;;;;;;4.50;1.30;;;11.70;99.90;;;;;;5029328;28;20413;-76
2022/01/03 13:16:20;;;;;;;2.87;0.90;;;11.80;99.90;;;;;;5029015;28;20424;-76
2022/01/03 13:19:15;;;;;;;4.13;1.03;;;11.90;99.90;;;;;;5029190;28;20617;-76